sensor_id;sensor_type;location;lat;lon;timestamp;pressure;altitude;pressure_sealevel;temperature;humidity
61740;BME280;47645;45.288;12.038;2023-02-01T00:00:10;1021.1961018593254;;;2.344140625;100
61740;BME280;47645;45.288;12.038;2023-02-01T00:10:09;1021.1239893343343;;;2.354296875;100
61740;BME280;47645;45.288;12.038;2023-02-01T00:20:10;1021.1447802838442;;;2.2982421875;99.12838910417565
61740;BME280;47645;45.288;12.038;2023-02-01T00:30:10;1021.1811103895456;;;2.1810546875;100
61740;BME280;47645;45.288;12.038;2023-02-01T00:40:10;1021.2456995193033;;;2.68046875;91.18554156023629
61740;BME280;47645;45.288;12.038;2023-02-01T00:50:10;1021.1256096460908;;;2.4052734375;92.34802456147186
61740;BME280;47645;45.288;12.038;2023-02-01T01:00:11;1021.0244124967425;;;1.8650390625;100
61740;BME280;47645;45.288;12.038;2023-02-01T01:10:10;1020.94771782789;;;1.8140625;100
61740;BME280;47645;45.288;12.038;2023-02-01T01:20:11;1020.9757149703311;;;1.916015625;98.9097445363804
61740;BME280;47645;45.288;12.038;2023-02-01T01:30:11;1020.8524850835018;;;1.6458984375;100
61740;BME280;47645;45.288;12.038;2023-02-01T01:40:12;1020.8684675548099;;;1.7173828125;100
61740;BME280;47645;45.288;12.038;2023-02-01T01:50:14;1020.8412668965539;;;1.696875;100
61740;BME280;47645;45.288;12.038;2023-02-01T02:00:14;1020.8540375736488;;;1.5236328125;100
61740;BME280;47645;45.288;12.038;2023-02-01T02:10:14;1020.8043150926908;;;1.8294921875;98.30103075811849
61740;BME280;47645;45.288;12.038;2023-02-01T02:20:45;1020.8033643757501;;;1.691796875;99.56180069973985
61740;BME280;47645;45.288;12.038;2023-02-01T02:40:18;1020.7341759481035;;;1.365625;100
61740;BME280;47645;45.288;12.038;2023-02-01T03:10:20;1020.609166507343;;;1.778515625;95.16783747522275
61740;BME280;47645;45.288;12.038;2023-02-01T03:20:16;1020.6241306704783;;;1.5388671875;98.60955785720496
61740;BME280;47645;45.288;12.038;2023-02-01T03:30:21;1020.5737234471753;;;1.45234375;100
61740;BME280;47645;45.288;12.038;2023-02-01T03:40:15;1020.6477684712448;;;1.5236328125;97.31754394729596
61740;BME280;47645;45.288;12.038;2023-02-01T03:50:17;1020.6447126873521;;;1.467578125;99.46474727539174
61740;BME280;47645;45.288;12.038;2023-02-01T04:00:19;1020.694333504601;;;1.5388671875;96.504303028849
61740;BME280;47645;45.288;12.038;2023-02-01T04:10:16;1020.7748416736155;;;1.4982421875;96.15337944876138
61740;BME280;47645;45.288;12.038;2023-02-01T04:20:16;1020.740098096468;;;1.885546875;89.82032630600641
61740;BME280;47645;45.288;12.038;2023-02-01T04:30:16;1020.8064422402033;;;1.66640625;95.28372451449013
61740;BME280;47645;45.288;12.038;2023-02-01T04:40:16;1020.649147508393;;;1.584765625;100
61740;BME280;47645;45.288;12.038;2023-02-01T04:50:16;1020.6393396072683;;;1.778515625;97.7105646751536
61740;BME280;47645;45.288;12.038;2023-02-01T05:00:17;1020.6500360708574;;;1.594921875;100
61740;BME280;47645;45.288;12.038;2023-02-01T05:10:17;1020.7720176619997;;;1.78359375;100
61740;BME280;47645;45.288;12.038;2023-02-01T05:20:17;1020.7546984360795;;;1.7529296875;100
61740;BME280;47645;45.288;12.038;2023-02-01T05:30:17;1020.7689586051803;;;1.66640625;100
61740;BME280;47645;45.288;12.038;2023-02-01T05:40:17;1020.8059225782486;;;1.691796875;100
61740;BME280;47645;45.288;12.038;2023-02-01T05:50:17;1020.9279465808373;;;1.885546875;100
61740;BME280;47645;45.288;12.038;2023-02-01T06:00:18;1020.9946330134804;;;2.028125;99.76955306452273
61740;BME280;47645;45.288;12.038;2023-02-01T06:10:18;1021.0711548221506;;;2.257421875;98.87896350190294
61740;BME280;47645;45.288;12.038;2023-02-01T06:20:18;1020.9796427381946;;;2.2830078125;99.00565403101062
61740;BME280;47645;45.288;12.038;2023-02-01T06:30:18;1020.9088295355676;;;2.3951171875;98.30746559339147
61740;BME280;47645;45.288;12.038;2023-02-01T06:40:18;1020.9306986408549;;;2.578515625;96.77986249866971
61740;BME280;47645;45.288;12.038;2023-02-01T06:50:18;1020.9765731474483;;;2.5326171875;97.43758888684737
61740;BME280;47645;45.288;12.038;2023-02-01T07:00:21;1020.8936743302546;;;2.9046875;95.25196530088701
61740;BME280;47645;45.288;12.038;2023-02-01T07:10:19;1020.8351980381938;;;2.9556640625;94.56911246103677
61740;BME280;47645;45.288;12.038;2023-02-01T07:20:19;1020.8906649079296;;;2.899609375;94.80098060356957
61740;BME280;47645;45.288;12.038;2023-02-01T07:30:19;1020.9532772720378;;;2.5173828125;97.89650493611477
61740;BME280;47645;45.288;12.038;2023-02-01T07:40:23;1021.0733071736718;;;2.4970703125;98.76682466436995
61740;BME280;47645;45.288;12.038;2023-02-01T07:50:20;1021.1500753650272;;;2.4970703125;98.62309652953823
61740;BME280;47645;45.288;12.038;2023-02-01T08:01:26;1021.2832209128402;;;2.5376953125;97.84596868748105
61740;BME280;47645;45.288;12.038;2023-02-01T08:10:20;1021.4184021676388;;;2.6498046875;97.17530197818533
61740;BME280;47645;45.288;12.038;2023-02-01T08:20:22;1021.4898963640672;;;2.9658203125;95.99880625316021
61740;BME280;47645;45.288;12.038;2023-02-01T08:30:21;1021.4015738009242;;;3.32265625;93.36976395770934
61740;BME280;47645;45.288;12.038;2023-02-01T08:40:22;1021.253466442191;;;3.776171875;91.53609987859869
61740;BME280;47645;45.288;12.038;2023-02-01T08:50:21;1021.1491688741866;;;3.975;90.09158378427931
61740;BME280;47645;45.288;12.038;2023-02-01T09:00:21;1021.1321410979826;;;4.45390625;90.38879870241317
61740;BME280;47645;45.288;12.038;2023-02-01T09:10:21;1021.2428007133599;;;4.749609375;88.54370091640196
61740;BME280;47645;45.288;12.038;2023-02-01T09:20:24;1021.2973322013668;;;5.0298828125;87.09089876027187
61740;BME280;47645;45.288;12.038;2023-02-01T09:30:22;1021.3145302754348;;;5.2845703125;85.22223879387259
61740;BME280;47645;45.288;12.038;2023-02-01T09:40:22;1021.2098169868331;;;5.7994140625;84.77497814111568
61740;BME280;47645;45.288;12.038;2023-02-01T09:50:30;1021.2335059912474;;;6.161328125;82.85707548724096
61740;BME280;47645;45.288;12.038;2023-02-01T10:00:25;1021.227261719144;;;6.716796875;81.5363377327486
61740;BME280;47645;45.288;12.038;2023-02-01T10:10:29;1021.2645448178316;;;7.0021484375;79.19819321601173
61740;BME280;47645;45.288;12.038;2023-02-01T10:20:32;1021.0359629588052;;;7.49140625;76.44061961399024
61740;BME280;47645;45.288;12.038;2023-02-01T10:30:29;1021.129437575308;;;7.8583984375;75.35342428587428
61740;BME280;47645;45.288;12.038;2023-02-01T10:40:25;1021.1599379355332;;;8.255859375;74.07168301951116
61740;BME280;47645;45.288;12.038;2023-02-01T10:50:34;1021.1157995209156;;;8.7400390625;72.20872419959633
61740;BME280;47645;45.288;12.038;2023-02-01T11:00:27;1020.9883690991945;;;9.0509765625;71.28999023582791
61740;BME280;47645;45.288;12.038;2023-02-01T11:10:42;1020.9753343015291;;;9.8306640625;67.5673745878853
61740;BME280;47645;45.288;12.038;2023-02-01T11:20:38;1021.0383200615979;;;9.7287109375;67.59899144037385
61740;BME280;47645;45.288;12.038;2023-02-01T11:30:32;1021.0595556012449;;;9.9326171875;67.45788189263675
61740;BME280;47645;45.288;12.038;2023-02-01T11:40:29;1020.8907150531356;;;10.090625;67.52874232539428
61740;BME280;47645;45.288;12.038;2023-02-01T11:50:34;1020.75354591929;;;10.202734375;65.90601007075517
61740;BME280;47645;45.288;12.038;2023-02-01T12:00:40;1020.5334016667302;;;11.0181640625;64.07248033893822
61740;BME280;47645;45.288;12.038;2023-02-01T12:10:39;1020.2766451635803;;;11.0947265625;61.91049696682595
61740;BME280;47645;45.288;12.038;2023-02-01T12:20:45;1020.0831048461248;;;11.691015625;62.27392939015327
61740;BME280;47645;45.288;12.038;2023-02-01T12:31:50;1019.9700313276325;;;11.7623046875;60.26829316130596
61740;BME280;47645;45.288;12.038;2023-02-01T12:40:43;1019.9690639608962;;;11.6298828125;59.93738412009958
61740;BME280;47645;45.288;12.038;2023-02-01T12:50:45;1019.9489762037399;;;11.7828125;60.677831237659035
61740;BME280;47645;45.288;12.038;2023-02-01T13:00:38;1019.6609538828939;;;11.7369140625;59.20971741243025
61740;BME280;47645;45.288;12.038;2023-02-01T13:10:35;1019.4673747688104;;;11.894921875;61.99335138925759
61740;BME280;47645;45.288;12.038;2023-02-01T13:20:40;1019.6851906479661;;;12.119140625;61.07076101577997
61740;BME280;47645;45.288;12.038;2023-02-01T13:30:47;1019.5203318543464;;;11.9763671875;61.37680050885933
61740;BME280;47645;45.288;12.038;2023-02-01T13:40:39;1019.2678536687814;;;11.79296875;60.09149974225096
61740;BME280;47645;45.288;12.038;2023-02-01T13:50:39;1019.0961738191243;;;11.6400390625;59.37831866505251
61740;BME280;47645;45.288;12.038;2023-02-01T14:00:42;1019.0873322985994;;;11.5279296875;58.30973478317593
61740;BME280;47645;45.288;12.038;2023-02-01T14:10:48;1019.0290188027552;;;11.466796875;62.98226444733803
61740;BME280;47645;45.288;12.038;2023-02-01T14:20:41;1019.0149602747391;;;11.252734375;61.99785927750393
61740;BME280;47645;45.288;12.038;2023-02-01T14:30:37;1019.055232514967;;;11.0896484375;63.09986224934867
61740;BME280;47645;45.288;12.038;2023-02-01T14:40:38;1019.1765485192086;;;11.1201171875;63.459208308121056
61740;BME280;47645;45.288;12.038;2023-02-01T14:50:41;1019.3529766654568;;;11.0181640625;64.7804910645778
61740;BME280;47645;45.288;12.038;2023-02-01T15:00:47;1019.3011582265473;;;10.7685546875;67.50256134529717
61740;BME280;47645;45.288;12.038;2023-02-01T15:10:44;1019.1067075099281;;;10.4779296875;69.05305251933224
61740;BME280;47645;45.288;12.038;2023-02-01T15:20:40;1019.1768426242389;;;10.172265625;71.3662326528831
61740;BME280;47645;45.288;12.038;2023-02-01T15:30:52;1019.1826047635234;;;9.8052734375;73.39073335004758
61740;BME280;47645;45.288;12.038;2023-02-01T15:40:53;1019.1728084573234;;;9.4484375;75.12525526369923
61740;BME280;47645;45.288;12.038;2023-02-01T15:50:42;1019.0258859471267;;;9.132421875;77.11886787627687
61740;BME280;47645;45.288;12.038;2023-02-01T16:00:46;1018.9972726067659;;;8.683984375;78.88018736118522
61740;BME280;47645;45.288;12.038;2023-02-01T16:10:52;1018.9707360159568;;;8.44453125;78.76961025092729
61740;BME280;47645;45.288;12.038;2023-02-01T16:20:47;1019.3074036956938;;;8.255859375;78.8235198621751
61740;BME280;47645;45.288;12.038;2023-02-01T16:30:48;1019.2561737197452;;;7.82265625;82.2379728562093
61740;BME280;47645;45.288;12.038;2023-02-01T16:40:46;1019.3873406422971;;;7.6494140625;80.16086700735188
61740;BME280;47645;45.288;12.038;2023-02-01T16:50:46;1019.6088669403493;;;7.399609375;80.69097979034606
61740;BME280;47645;45.288;12.038;2023-02-01T17:00:46;1019.6608982884567;;;7.3384765625;80.23340356502067
61740;BME280;47645;45.288;12.038;2023-02-01T17:10:46;1019.5493019877861;;;7.1142578125;80.65252618575222
61740;BME280;47645;45.288;12.038;2023-02-01T17:20:48;1019.6064814262231;;;6.7982421875;81.59412364699061
61740;BME280;47645;45.288;12.038;2023-02-01T17:30:47;1019.5698602157537;;;6.5791015625;82.1656027722858
61740;BME280;47645;45.288;12.038;2023-02-01T17:40:47;1019.7305068664341;;;6.3447265625;82.63931792083899
61740;BME280;47645;45.288;12.038;2023-02-01T17:50:49;1019.7794183217179;;;5.850390625;86.71006153675634
61740;BME280;47645;45.288;12.038;2023-02-01T18:00:48;1019.9351309035035;;;5.8095703125;84.34868988810975
61740;BME280;47645;45.288;12.038;2023-02-01T18:10:50;1019.9676844262306;;;5.733203125;84.68606993007329
61740;BME280;47645;45.288;12.038;2023-02-01T18:20:49;1019.9438871885254;;;5.5751953125;84.67360957717024
61740;BME280;47645;45.288;12.038;2023-02-01T18:30:50;1020.0572068691333;;;5.4681640625;84.8868611532379
61740;BME280;47645;45.288;12.038;2023-02-01T18:40:52;1019.9347225990645;;;5.3560546875;84.63909986575084
61740;BME280;47645;45.288;12.038;2023-02-01T18:50:51;1019.8141494933371;;;5.228515625;84.48936611181603
61740;BME280;47645;45.288;12.038;2023-02-01T19:00:50;1019.771378628787;;;5.1419921875;84.34196330344854
61740;BME280;47645;45.288;12.038;2023-02-01T19:10:51;1019.7234777985168;;;4.9533203125;84.96167120412264
61740;BME280;47645;45.288;12.038;2023-02-01T19:20:51;1019.7433395991384;;;4.6578125;85.80674154710168
61740;BME280;47645;45.288;12.038;2023-02-01T19:31:00;1019.8085147563128;;;4.739453125;85.0788444118325
61740;BME280;47645;45.288;12.038;2023-02-01T19:40:53;1020.0224839899923;;;4.5609375;85.30419809122662
61740;BME280;47645;45.288;12.038;2023-02-01T19:50:53;1020.1177737693121;;;4.5203125;85.19038208816823
61740;BME280;47645;45.288;12.038;2023-02-01T20:00:52;1020.1227625866849;;;4.3775390625;85.58505383867929
61740;BME280;47645;45.288;12.038;2023-02-01T20:10:53;1020.0436004354292;;;4.311328125;85.34284056660792
61740;BME280;47645;45.288;12.038;2023-02-01T20:20:55;1020.1812990925126;;;3.9189453125;87.37063410928768
61740;BME280;47645;45.288;12.038;2023-02-01T20:30:54;1020.1973915027411;;;3.6130859375;90.04684662063615
61740;BME280;47645;45.288;12.038;2023-02-01T20:41:01;1020.1933634954216;;;3.8322265625;87.22363811269152
61740;BME280;47645;45.288;12.038;2023-02-01T20:50:54;1020.1507949708445;;;4.02578125;85.14276098632281
61740;BME280;47645;45.288;12.038;2023-02-01T21:00:54;1020.0454852235152;;;3.9646484375;85.07042080011794
61740;BME280;47645;45.288;12.038;2023-02-01T21:10:57;1020.0606826230453;;;3.5927734375;87.18588741994465
61740;BME280;47645;45.288;12.038;2023-02-01T21:20:54;1019.9361944999649;;;3.7048828125;85.44901975352671
61740;BME280;47645;45.288;12.038;2023-02-01T21:30:55;1019.9369747722474;;;3.230859375;88.98249895360705
61740;BME280;47645;45.288;12.038;2023-02-01T21:42:13;1019.8908709248456;;;3.03203125;89.91445411216056
61740;BME280;47645;45.288;12.038;2023-02-01T21:50:56;1019.9741022180251;;;2.66015625;98.83989910570665
61740;BME280;47645;45.288;12.038;2023-02-01T22:00:56;1020.052483434028;;;3.3328125;87.29516254162355
61740;BME280;47645;45.288;12.038;2023-02-01T22:10:57;1020.0579629030567;;;3.3888671875;86.13225157778272
61740;BME280;47645;45.288;12.038;2023-02-01T22:20:58;1020.158058621261;;;3.2818359375;87.65500899083052
61740;BME280;47645;45.288;12.038;2023-02-01T22:31:00;1020.2542520595802;;;2.9759765625;88.37943020511595
61740;BME280;47645;45.288;12.038;2023-02-01T22:40:59;1020.395243193316;;;2.909765625;88.23011774863178
61740;BME280;47645;45.288;12.038;2023-02-01T22:50:58;1020.4964386435229;;;3.0474609375;86.61477209775305
61740;BME280;47645;45.288;12.038;2023-02-01T23:01:04;1020.524164864265;;;3.0931640625;85.93499915864875
61740;BME280;47645;45.288;12.038;2023-02-01T23:10:58;1020.482530061336;;;2.802734375;86.51565425179757
61740;BME280;47645;45.288;12.038;2023-02-01T23:21:02;1020.4783464962549;;;2.8537109375;86.06529262226712
61740;BME280;47645;45.288;12.038;2023-02-01T23:30:58;1020.3627581239812;;;2.8384765625;85.5032631922507
61740;BME280;47645;45.288;12.038;2023-02-01T23:41:00;1020.2832228662427;;;2.4970703125;86.42092974246063
61740;BME280;47645;45.288;12.038;2023-02-01T23:50:58;1020.1863425866183;;;2.665234375;85.56511613503339
